Aérodrome :
LOGIN :

S'inscrire | Disclaimer

   EN    FR    IT 

 










Légende :    VFR   VFR Marginal   IFR   IFR Intensif   IFR Très Intensif
Visi : 
Plafond : 
>= 8 km
>= 3000ft
5 à 8 km
1000 à 3000 ft
1500m à 5 km
500 à 1000 ft
800 à 1500m
200 à 500 ft
< 800m
< 200 ft
Symboles :   Orages  Brouillard  Fortes neiges  Fortes précipitations  Vent > 20 kt
SIGMETs :   Divers  Orages  Givrage  Turbulence  Onde Orograph.  Cendres Volcan.






- Altitude de l'aérodrome : 308 ft
- Code IATA : POZ


EPPO - Poznan-Lawica

DERNIER METAR :
  • 151430Z 22010KT CAVOK 07/05 Q1001

METARs EXPIRÉS :
  • 151400Z 22010KT 9999 FEW022 07/05 Q1001
  • 151330Z 21009KT 9999 FEW022 06/04 Q1000
  • 151300Z 19010KT 9999 SCT019 06/04 Q1000
  • 151230Z 20011KT 9999 -SHRA BKN026CB 06/04 Q1000
  • 151200Z 19012KT 9999 -SHRA FEW016 BKN029CB 06/04 Q1000

TAF TAF EPPO
Valide du 15 à 12h jusqu'au 16 à 12h UTC


151130Z 1512/1612 20013KT 9999 BKN030
BECMG 1512/1514 25014KT
TEMPO 1512/1517 25016G26KT 4000 SHRA BKN008 BKN013CB
BECMG 1603/1606 19008KT
BECMG 1609/1611 BKN013



MET'MAP, la Météo Aéronautique d'un coup d'oeil ! - Copyright ORBIFLY Décembre 2007 - Disclaimer

ORBIFLY MET'MAP TEAM :

Programmation & Développement : Alexandra Zaïnal
Sur une idée originale de : Baudouin d'Aumeries
Assistance à la programmation : Marc-Olivier Méhu
Soutien technique & logistique : Manuel Goepfert

Contact : metmap@orbifly.com




SOURCES & CREDITS :

   NOAA